Carnlough, United Kingdom
Current Conditions -  °F | °C
As of 4:20 AM on Friday 21 Nov 2014 (Local Time) from EGAA Reporting Station
Overcast Overcast  
Wind Chill: 42°   Ceiling: 2200
Heat Index: 48°   Visibility: 4mi
Dew Point: 45°   Wind: 15mph
Humidity: 87%   Direction: 120°ESE
Pressure: 30.06"   Gusts: NA
Location:  54.99°N, 5.99°W
Report Text: EGAA 210420Z AUTO 12013KT 6000 FEW016/// OVC022/// 09/07 Q1018
Loading
Personal Weather Stations






























Interactive Weather Map New forecast layout! Learn more

10-Day Weather Forecast

Advertisements
Track Severe Weather on mobile